Time;durP1;ratioP1;P1;durP2;ratioP2;P2;SDS_P1;SDS_P2;PMS_P1;PMS_P2;Temp;Humidity;BMP_temperature;BMP_pressure;BME280_temperature;BME280_humidity;BME280_pressure;Samples;Min_cycle;Max_cycle;Signal;HPM_P1;HPM_P2
2023/08/14 00:00:31;;;;;;;2.20;2.10;;;22.50;99.90;;;;;;5084814;28;20195;-68
2023/08/14 00:02:57;;;;;;;2.35;1.98;;;22.50;99.90;;;;;;5084833;28;20183;-69
2023/08/14 00:05:23;;;;;;;2.83;2.10;;;22.60;99.90;;;;;;5087719;28;20678;-69
2023/08/14 00:07:49;;;;;;;3.92;2.40;;;22.60;99.90;;;;;;5088136;28;20180;-70
2023/08/14 00:10:15;;;;;;;2.28;1.98;;;22.60;99.90;;;;;;5079610;28;20238;-69
2023/08/14 00:12:40;;;;;;;2.17;1.98;;;22.60;99.90;;;;;;5074043;28;20177;-69
2023/08/14 00:15:07;;;;;;;2.25;2.05;;;22.60;99.90;;;;;;5090301;28;20232;-69
2023/08/14 00:17:33;;;;;;;2.15;2.00;;;22.60;99.90;;;;;;5097631;28;20598;-70
2023/08/14 00:19:59;;;;;;;2.40;2.20;;;22.50;99.90;;;;;;5079987;28;20205;-69
2023/08/14 00:22:25;;;;;;;2.20;2.10;;;22.50;99.90;;;;;;5104796;28;20172;-68
2023/08/14 00:24:51;;;;;;;2.30;2.10;;;22.60;99.90;;;;;;5087768;28;20184;-69
2023/08/14 00:27:16;;;;;;;2.47;2.28;;;22.50;99.90;;;;;;5061233;28;20247;-68
2023/08/14 00:29:42;;;;;;;1.98;1.88;;;22.60;99.90;;;;;;5104768;28;20224;-69
2023/08/14 00:32:08;;;;;;;1.92;1.83;;;22.60;99.90;;;;;;5096187;28;20193;-69
2023/08/14 00:34:35;;;;;;;1.98;1.88;;;22.50;99.90;;;;;;5070936;28;20179;-69
2023/08/14 00:37:01;;;;;;;2.05;1.95;;;22.60;99.90;;;;;;5088096;28;20277;-69
2023/08/14 00:39:27;;;;;;;2.67;2.17;;;22.60;99.90;;;;;;5087232;28;20216;-69
2023/08/14 00:41:53;;;;;;;2.13;1.92;;;22.50;99.90;;;;;;5080772;28;20770;-69
2023/08/14 00:44:18;;;;;;;2.22;1.90;;;22.60;99.90;;;;;;5086291;28;20271;-68
2023/08/14 00:46:44;;;;;;;2.30;2.20;;;22.50;99.90;;;;;;5087568;28;20191;-69
2023/08/14 00:49:11;;;;;;;2.50;2.30;;;22.50;99.90;;;;;;5087039;28;20211;-69
2023/08/14 00:51:37;;;;;;;2.10;2.00;;;22.50;99.90;;;;;;5087361;28;20267;-69
2023/08/14 00:54:03;;;;;;;2.28;2.10;;;22.50;99.90;;;;;;5070460;28;20217;-69
2023/08/14 00:56:29;;;;;;;2.25;2.05;;;22.50;99.90;;;;;;5075368;28;20205;-69
2023/08/14 00:58:57;;;;;;;2.03;1.92;;;22.50;99.90;;;;;;5083200;28;20725;-69
2023/08/14 01:01:23;;;;;;;2.58;2.05;;;22.50;99.90;;;;;;5104065;28;20180;-69
2023/08/14 01:03:49;;;;;;;2.15;2.05;;;22.50;99.90;;;;;;5089237;28;20176;-69
2023/08/14 01:06:15;;;;;;;2.03;1.90;;;22.50;99.90;;;;;;5084747;28;20238;-69
2023/08/14 01:08:43;;;;;;;2.00;1.80;;;22.50;99.90;;;;;;5081768;28;20226;-68
2023/08/14 01:11:43;;;;;;;2.05;1.85;;;22.50;99.90;;;;;;5100591;28;20173;-69
2023/08/14 01:14:29;;;;;;;2.03;1.92;;;22.50;99.90;;;;;;5086722;28;20180;-69
2023/08/14 01:17:02;;;;;;;2.38;2.15;;;22.50;99.90;;;;;;5097911;28;20189;-69
2023/08/14 01:19:41;;;;;;;1.90;1.80;;;22.50;99.90;;;;;;5073864;28;20650;-66
2023/08/14 01:22:43;;;;;;;2.13;1.92;;;22.50;99.90;;;;;;5074462;28;20248;-69
2023/08/14 01:25:33;;;;;;;2.17;2.00;;;22.50;99.90;;;;;;5097083;28;20184;-69
2023/08/14 01:28:01;;;;;;;2.00;1.90;;;22.50;99.90;;;;;;5103386;28;20274;-68
2023/08/14 01:30:27;;;;;;;2.92;2.05;;;22.50;99.90;;;;;;5083901;28;20191;-69
2023/08/14 01:32:54;;;;;;;1.90;1.75;;;22.50;99.90;;;;;;5083467;28;20181;-70
2023/08/14 01:35:25;;;;;;;2.20;2.00;;;22.50;99.90;;;;;;5084341;28;20201;-69
2023/08/14 01:38:17;;;;;;;2.10;2.00;;;22.50;99.90;;;;;;5104177;28;20318;-69
2023/08/14 01:41:02;;;;;;;2.15;2.05;;;22.50;99.90;;;;;;5075608;28;20285;-69
2023/08/14 01:43:38;;;;;;;1.95;1.85;;;22.50;99.90;;;;;;5085213;28;20189;-69
2023/08/14 01:46:08;;;;;;;2.40;2.20;;;22.50;99.90;;;;;;5104472;28;20172;-69
2023/08/14 01:48:37;;;;;;;2.15;1.83;;;22.50;99.90;;;;;;5071768;28;20217;-68
2023/08/14 01:51:04;;;;;;;2.08;1.92;;;22.50;99.90;;;;;;5074374;28;20208;-69
2023/08/14 01:53:34;;;;;;;2.17;2.08;;;22.50;99.90;;;;;;5068974;28;20296;-69
2023/08/14 01:55:59;;;;;;;2.05;1.95;;;22.50;99.90;;;;;;5086043;28;20204;-69
2023/08/14 01:58:25;;;;;;;2.00;1.90;;;22.50;99.90;;;;;;5068844;28;20199;-69
2023/08/14 02:00:51;;;;;;;1.80;1.70;;;22.50;99.90;;;;;;5069337;28;20176;-69
2023/08/14 02:03:17;;;;;;;1.80;1.70;;;22.50;99.90;;;;;;5085389;28;20180;-69
2023/08/14 02:05:43;;;;;;;1.90;1.80;;;22.50;99.90;;;;;;5082260;28;20181;-68
2023/08/14 02:08:09;;;;;;;2.20;2.00;;;22.50;99.90;;;;;;5100452;28;20179;-69
2023/08/14 02:10:34;;;;;;;1.95;1.85;;;22.50;99.90;;;;;;5068826;28;20195;-69
2023/08/14 02:17:07;;;;;;;1.88;1.77;;;22.50;99.90;;;;;;5068883;28;20228;-66
2023/08/14 02:19:32;;;;;;;1.77;1.67;;;22.50;99.90;;;;;;5042697;28;20222;-68
2023/08/14 02:21:58;;;;;;;1.92;1.83;;;22.50;99.90;;;;;;5030868;28;20185;-68
2023/08/14 02:24:24;;;;;;;1.90;1.80;;;22.50;99.90;;;;;;5041512;28;20194;-68
2023/08/14 02:26:50;;;;;;;1.85;1.60;;;22.50;99.90;;;;;;5033693;28;20188;-68
2023/08/14 02:29:17;;;;;;;2.20;2.00;;;22.50;99.90;;;;;;5050163;28;20196;-68
2023/08/14 02:31:47;;;;;;;2.20;2.00;;;22.50;99.90;;;;;;5034076;28;20174;-68
2023/08/14 02:34:54;;;;;;;1.60;1.50;;;22.50;99.90;;;;;;5049654;28;20213;-68
2023/08/14 02:37:20;;;;;;;1.98;1.80;;;22.50;99.90;;;;;;5025737;28;20193;-69
2023/08/14 02:39:46;;;;;;;1.95;1.85;;;22.40;99.90;;;;;;5051295;28;20675;-70
2023/08/14 02:42:15;;;;;;;1.67;1.58;;;22.40;99.90;;;;;;5033163;28;20186;-71
2023/08/14 02:44:41;;;;;;;1.65;1.55;;;22.50;99.90;;;;;;5027358;28;20703;-70
2023/08/14 02:47:06;;;;;;;1.98;1.88;;;22.50;99.90;;;;;;5050598;28;20181;-70
2023/08/14 02:49:33;;;;;;;1.70;1.60;;;22.50;99.90;;;;;;5058711;28;20227;-70
2023/08/14 02:51:59;;;;;;;1.80;1.70;;;22.50;99.90;;;;;;5036554;28;20186;-70
2023/08/14 02:54:25;;;;;;;1.90;1.80;;;22.50;99.90;;;;;;5056915;28;20194;-70
2023/08/14 02:56:51;;;;;;;1.90;1.80;;;22.50;99.90;;;;;;5040886;28;20181;-70
2023/08/14 02:59:17;;;;;;;2.10;2.00;;;22.50;99.90;;;;;;5040721;28;20170;-69
2023/08/14 03:01:43;;;;;;;1.90;1.80;;;22.50;99.90;;;;;;5054324;28;20268;-70
2023/08/14 03:04:09;;;;;;;1.80;1.70;;;22.50;99.90;;;;;;5021547;28;20206;-70
2023/08/14 03:06:35;;;;;;;1.77;1.67;;;22.50;99.90;;;;;;5042247;28;20188;-70
2023/08/14 03:09:01;;;;;;;1.92;1.75;;;22.50;99.90;;;;;;5057054;28;20182;-70
2023/08/14 03:11:27;;;;;;;1.83;1.70;;;22.40;99.90;;;;;;5049123;28;20194;-70
2023/08/14 03:13:53;;;;;;;1.58;1.48;;;22.40;99.90;;;;;;5040672;28;20216;-70
2023/08/14 03:16:20;;;;;;;2.30;2.10;;;22.50;99.90;;;;;;5039079;28;20214;-70
2023/08/14 03:18:45;;;;;;;2.33;2.03;;;22.50;99.90;;;;;;5048903;28;20229;-70
2023/08/14 03:21:12;;;;;;;1.85;1.75;;;22.40;99.90;;;;;;5056944;28;20178;-69
2023/08/14 03:23:37;;;;;;;1.88;1.77;;;22.40;99.90;;;;;;5036926;28;20213;-71
2023/08/14 03:26:04;;;;;;;1.63;1.52;;;22.50;99.90;;;;;;5042045;28;20567;-69
2023/08/14 03:28:30;;;;;;;1.80;1.70;;;22.50;99.90;;;;;;5028503;28;20201;-70
2023/08/14 03:30:56;;;;;;;1.60;1.50;;;22.50;99.90;;;;;;5049258;28;20186;-70
2023/08/14 03:33:23;;;;;;;1.67;1.58;;;22.40;99.90;;;;;;5044216;28;20234;-70
2023/08/14 03:35:53;;;;;;;2.03;1.75;;;22.50;99.90;;;;;;5034823;28;20208;-68
2023/08/14 03:38:20;;;;;;;2.10;2.00;;;22.40;99.90;;;;;;5056882;28;20197;-68
2023/08/14 03:40:46;;;;;;;2.05;1.80;;;22.40;99.90;;;;;;5042322;28;20238;-68
2023/08/14 03:43:11;;;;;;;1.83;1.50;;;22.40;99.90;;;;;;5067143;28;20214;-68
2023/08/14 03:45:37;;;;;;;1.70;1.60;;;22.40;99.90;;;;;;5036753;28;20183;-68
2023/08/14 03:48:04;;;;;;;1.55;1.45;;;22.40;99.90;;;;;;5020312;28;20206;-68
2023/08/14 03:50:29;;;;;;;1.83;1.73;;;22.40;99.90;;;;;;5039000;28;20196;-68
2023/08/14 03:52:56;;;;;;;1.70;1.60;;;22.40;99.90;;;;;;5050999;28;20213;-69
2023/08/14 03:55:21;;;;;;;1.75;1.65;;;22.50;99.90;;;;;;5061890;28;20230;-68
2023/08/14 03:57:47;;;;;;;2.05;1.85;;;22.50;99.90;;;;;;5031061;28;20190;-68
2023/08/14 04:00:13;;;;;;;1.75;1.65;;;22.40;99.90;;;;;;5020947;28;20187;-69
2023/08/14 04:02:39;;;;;;;1.80;1.70;;;22.50;99.90;;;;;;5056132;28;20185;-68
2023/08/14 04:05:06;;;;;;;1.70;1.60;;;22.50;99.90;;;;;;5055947;28;20216;-69
2023/08/14 04:07:32;;;;;;;1.48;1.38;;;22.50;99.90;;;;;;5044265;28;20191;-68
2023/08/14 04:09:58;;;;;;;1.70;1.60;;;22.40;99.90;;;;;;5032057;28;20239;-67
2023/08/14 04:12:24;;;;;;;1.70;1.60;;;22.40;99.90;;;;;;5038697;28;20588;-68
2023/08/14 04:14:51;;;;;;;2.13;1.80;;;22.50;99.90;;;;;;5031314;28;20271;-68
2023/08/14 04:17:17;;;;;;;1.77;1.67;;;22.40;99.90;;;;;;5045705;28;20270;-68
2023/08/14 04:19:42;;;;;;;1.65;1.55;;;22.40;99.90;;;;;;5029493;28;20340;-68
2023/08/14 04:22:08;;;;;;;1.52;1.42;;;22.40;99.90;;;;;;5054420;28;20182;-68
2023/08/14 04:24:34;;;;;;;2.17;1.98;;;22.40;99.90;;;;;;5048107;28;20219;-68
2023/08/14 04:27:00;;;;;;;2.00;1.90;;;22.40;99.90;;;;;;5048394;28;20235;-68
2023/08/14 04:29:26;;;;;;;1.70;1.60;;;22.40;99.90;;;;;;5037945;28;20663;-68
2023/08/14 04:31:51;;;;;;;1.70;1.60;;;22.40;99.90;;;;;;5055620;28;20192;-68
2023/08/14 04:34:19;;;;;;;1.98;1.88;;;22.40;99.90;;;;;;5036933;28;20284;-68
2023/08/14 04:36:50;;;;;;;1.65;1.55;;;22.40;99.90;;;;;;5044128;28;20214;-68
2023/08/14 04:39:16;;;;;;;1.70;1.60;;;22.40;99.90;;;;;;5035358;28;20182;-68
2023/08/14 04:41:42;;;;;;;1.58;1.48;;;22.40;99.90;;;;;;5027379;28;20607;-68
2023/08/14 04:44:08;;;;;;;1.70;1.60;;;22.40;99.90;;;;;;5043391;28;20245;-68
2023/08/14 04:46:38;;;;;;;1.67;1.58;;;22.40;99.90;;;;;;5027151;28;20233;-68
2023/08/14 04:49:05;;;;;;;1.50;1.40;;;22.40;99.90;;;;;;5040105;28;20183;-68
2023/08/14 04:51:31;;;;;;;1.58;1.48;;;22.40;99.90;;;;;;5035476;28;20676;-67
2023/08/14 04:53:59;;;;;;;2.40;1.75;;;22.40;99.90;;;;;;5030628;28;20304;-67
2023/08/14 04:56:26;;;;;;;11.32;2.00;;;22.40;99.90;;;;;;5038769;28;20206;-67
2023/08/14 04:58:52;;;;;;;1.48;1.38;;;22.40;99.90;;;;;;5040653;28;20183;-68
2023/08/14 05:01:19;;;;;;;1.50;1.40;;;22.40;99.90;;;;;;5035229;28;20178;-67
2023/08/14 05:03:47;;;;;;;4.63;2.00;;;22.40;99.90;;;;;;5045314;28;20203;-67
2023/08/14 05:06:13;;;;;;;3.33;1.92;;;22.50;99.90;;;;;;5024283;28;20182;-67
2023/08/14 05:08:39;;;;;;;3.10;2.13;;;22.40;99.90;;;;;;5050884;28;20186;-68
2023/08/14 05:11:06;;;;;;;2.83;2.08;;;22.40;99.90;;;;;;5046785;28;20188;-68
2023/08/14 05:13:32;;;;;;;4.00;2.08;;;22.40;99.90;;;;;;5052962;28;20205;-68
2023/08/14 05:15:58;;;;;;;2.28;1.65;;;22.40;99.90;;;;;;5042605;28;20648;-68
2023/08/14 05:18:24;;;;;;;1.92;1.70;;;22.50;99.90;;;;;;5046264;28;20198;-68
2023/08/14 05:20:51;;;;;;;3.15;1.80;;;22.50;99.90;;;;;;5072403;28;20206;-68
2023/08/14 05:23:17;;;;;;;2.83;1.77;;;22.40;99.90;;;;;;5035868;28;20249;-68
2023/08/14 05:25:44;;;;;;;2.88;1.60;;;22.50;99.90;;;;;;5051850;28;20235;-68
2023/08/14 05:28:11;;;;;;;2.17;1.67;;;22.40;99.90;;;;;;5021182;28;20183;-68
2023/08/14 05:30:43;;;;;;;3.40;2.05;;;22.40;99.90;;;;;;5055234;28;20182;-68
2023/08/14 05:33:08;;;;;;;2.20;1.92;;;22.40;99.90;;;;;;5054272;28;20430;-68
2023/08/14 05:35:34;;;;;;;1.73;1.50;;;22.50;99.90;;;;;;5021503;28;20305;-68
2023/08/14 05:38:00;;;;;;;3.28;1.83;;;22.50;99.90;;;;;;5054591;28;20185;-69
2023/08/14 05:40:26;;;;;;;2.00;1.70;;;22.40;99.90;;;;;;5051880;28;20181;-68
2023/08/14 05:43:07;;;;;;;3.30;2.20;;;22.40;99.90;;;;;;5036237;28;20186;-68
2023/08/14 05:45:35;;;;;;;3.20;1.90;;;22.40;99.90;;;;;;5034024;28;20178;-68
2023/08/14 05:48:03;;;;;;;2.40;1.70;;;22.40;99.90;;;;;;5049848;28;20178;-68
2023/08/14 05:50:29;;;;;;;3.05;1.70;;;22.40;99.90;;;;;;5026384;28;20226;-68
2023/08/14 05:52:59;;;;;;;2.70;1.65;;;22.40;99.90;;;;;;5040193;28;20213;-68
2023/08/14 05:55:26;;;;;;;2.95;1.60;;;22.40;99.90;;;;;;5053265;28;20213;-68
2023/08/14 05:57:52;;;;;;;2.08;1.70;;;22.40;99.90;;;;;;5042305;28;20171;-68
2023/08/14 06:00:19;;;;;;;2.17;1.70;;;22.40;99.90;;;;;;5049262;28;20244;-68
2023/08/14 06:02:45;;;;;;;2.38;1.63;;;22.40;99.90;;;;;;5040781;28;20179;-70
2023/08/14 06:05:12;;;;;;;1.88;1.40;;;22.40;99.90;;;;;;5060219;28;20179;-70
2023/08/14 06:07:37;;;;;;;1.70;1.58;;;22.40;99.90;;;;;;5066717;28;20183;-70
2023/08/14 06:10:05;;;;;;;2.60;1.83;;;22.40;99.90;;;;;;5033142;28;20201;-70
2023/08/14 06:12:34;;;;;;;2.33;1.70;;;22.40;99.90;;;;;;5071295;28;20201;-70
2023/08/14 06:15:00;;;;;;;1.92;1.70;;;22.40;99.90;;;;;;5038567;28;20245;-70
2023/08/14 06:17:27;;;;;;;2.28;1.80;;;22.40;99.90;;;;;;5041544;28;20190;-70
2023/08/14 06:19:53;;;;;;;2.00;1.77;;;22.40;99.90;;;;;;5052807;28;20197;-70
2023/08/14 06:22:19;;;;;;;2.08;1.60;;;22.40;99.90;;;;;;5024941;28;20218;-70
2023/08/14 06:24:46;;;;;;;2.45;1.75;;;22.40;99.90;;;;;;5028313;28;20204;-70
2023/08/14 06:27:12;;;;;;;2.70;1.67;;;22.40;99.90;;;;;;5053122;28;20224;-70
2023/08/14 06:29:38;;;;;;;4.85;1.70;;;22.40;99.90;;;;;;5041997;28;20210;-70
2023/08/14 06:32:07;;;;;;;2.00;1.80;;;22.40;99.90;;;;;;5041995;28;20170;-70
2023/08/14 06:34:32;;;;;;;1.63;1.35;;;22.40;99.90;;;;;;5059297;28;20206;-70
2023/08/14 06:36:58;;;;;;;1.45;1.33;;;22.40;99.90;;;;;;5051381;28;20182;-70
2023/08/14 06:39:24;;;;;;;2.58;1.80;;;22.50;99.90;;;;;;5040559;28;20210;-70
2023/08/14 06:41:50;;;;;;;2.00;1.90;;;22.40;99.90;;;;;;5045179;28;20193;-70
2023/08/14 06:44:18;;;;;;;1.77;1.67;;;22.40;99.90;;;;;;5027747;28;20205;-72
2023/08/14 06:46:43;;;;;;;2.30;1.70;;;22.40;99.90;;;;;;5051231;28;20205;-70
2023/08/14 06:49:10;;;;;;;2.60;1.67;;;22.50;99.90;;;;;;5033114;28;20178;-70
2023/08/14 06:51:37;;;;;;;1.50;1.40;;;22.50;99.90;;;;;;5053391;28;20216;-70
2023/08/14 06:54:04;;;;;;;1.80;1.70;;;22.50;99.90;;;;;;5052984;28;20224;-70
2023/08/14 06:56:30;;;;;;;1.40;1.30;;;22.50;99.90;;;;;;5036847;28;20202;-70
2023/08/14 06:58:56;;;;;;;1.67;1.52;;;22.50;99.90;;;;;;5039302;28;20252;-70
2023/08/14 07:01:22;;;;;;;3.50;1.65;;;22.50;99.90;;;;;;5040895;28;20183;-70
2023/08/14 07:03:49;;;;;;;1.42;1.30;;;22.40;99.90;;;;;;5023305;28;20297;-70
2023/08/14 07:06:15;;;;;;;1.60;1.40;;;22.50;99.90;;;;;;5024894;28;20183;-70
2023/08/14 07:08:41;;;;;;;2.28;1.73;;;22.50;99.90;;;;;;5044528;28;20190;-70
2023/08/14 07:11:07;;;;;;;1.90;1.40;;;22.40;99.90;;;;;;5049792;28;20300;-70
2023/08/14 07:13:32;;;;;;;1.60;1.50;;;22.40;99.90;;;;;;5029006;28;20324;-70
2023/08/14 07:15:58;;;;;;;1.65;1.55;;;22.50;99.90;;;;;;5040703;28;20214;-70
2023/08/14 07:18:24;;;;;;;1.48;1.38;;;22.50;99.90;;;;;;5049563;28;20675;-70
2023/08/14 07:20:50;;;;;;;1.73;1.63;;;22.50;99.90;;;;;;5049642;28;20232;-69
2023/08/14 07:23:17;;;;;;;1.50;1.40;;;22.50;99.90;;;;;;5032742;28;20207;-69
2023/08/14 07:25:44;;;;;;;1.83;1.67;;;22.50;99.90;;;;;;5044539;28;20198;-69
2023/08/14 07:28:10;;;;;;;1.50;1.40;;;22.40;99.90;;;;;;5029373;28;20194;-69
2023/08/14 07:30:38;;;;;;;1.65;1.40;;;22.50;99.90;;;;;;5049603;28;20190;-69
2023/08/14 07:33:10;;;;;;;1.52;1.42;;;22.50;99.90;;;;;;5051609;28;20201;-70
2023/08/14 07:35:36;;;;;;;1.60;1.50;;;22.50;99.90;;;;;;5058188;28;20701;-70
2023/08/14 07:38:03;;;;;;;1.70;1.60;;;22.40;99.90;;;;;;5039386;28;20233;-70
2023/08/14 07:40:29;;;;;;;2.00;1.50;;;22.40;99.90;;;;;;5036680;28;20186;-70
2023/08/14 07:42:55;;;;;;;2.60;1.58;;;22.40;99.90;;;;;;5036395;28;20309;-70
2023/08/14 07:45:20;;;;;;;1.60;1.50;;;22.50;99.90;;;;;;5036578;28;20280;-70
2023/08/14 07:47:46;;;;;;;1.80;1.40;;;22.50;99.90;;;;;;5050546;28;20197;-70
2023/08/14 07:50:12;;;;;;;1.60;1.50;;;22.50;99.90;;;;;;5043781;28;20190;-69
2023/08/14 07:52:38;;;;;;;1.63;1.52;;;22.50;99.90;;;;;;5036321;28;20194;-69
2023/08/14 07:55:05;;;;;;;1.33;1.23;;;22.50;99.90;;;;;;5054174;28;20206;-70
2023/08/14 07:57:31;;;;;;;1.92;1.30;;;22.50;99.90;;;;;;5047069;28;20301;-69
2023/08/14 07:59:56;;;;;;;1.40;1.30;;;22.50;99.90;;;;;;5034208;28;20214;-69
2023/08/14 08:02:22;;;;;;;2.28;1.65;;;22.50;99.90;;;;;;5045125;28;20193;-70
2023/08/14 08:04:50;;;;;;;2.42;1.48;;;22.50;99.90;;;;;;5039414;28;20288;-69
2023/08/14 08:07:16;;;;;;;2.22;1.50;;;22.60;99.90;;;;;;5047809;28;20236;-69
2023/08/14 08:09:41;;;;;;;1.48;1.38;;;22.60;99.90;;;;;;5047794;28;20177;-70
2023/08/14 08:12:07;;;;;;;1.48;1.38;;;22.70;99.90;;;;;;5040610;28;20186;-71
2023/08/14 08:14:34;;;;;;;1.88;1.70;;;22.60;99.90;;;;;;5022116;28;20309;-69
2023/08/14 08:17:01;;;;;;;1.45;1.35;;;22.70;99.90;;;;;;5052207;28;20688;-70
2023/08/14 08:19:26;;;;;;;1.27;1.17;;;22.70;99.90;;;;;;5036403;28;20194;-70
2023/08/14 08:21:53;;;;;;;1.30;1.20;;;22.60;99.90;;;;;;5036045;28;20178;-70
2023/08/14 08:24:19;;;;;;;1.50;1.40;;;22.60;99.90;;;;;;5033606;28;20226;-69
2023/08/14 08:26:45;;;;;;;1.80;1.63;;;22.60;99.90;;;;;;5043953;28;20187;-70
2023/08/14 08:29:11;;;;;;;1.30;1.20;;;22.50;99.90;;;;;;5029678;28;20232;-70
2023/08/14 08:31:37;;;;;;;1.55;1.45;;;22.50;99.90;;;;;;5038707;28;20186;-70
2023/08/14 08:34:03;;;;;;;1.85;1.60;;;22.50;99.90;;;;;;5048840;28;20210;-70
2023/08/14 08:36:28;;;;;;;1.60;1.50;;;22.50;99.90;;;;;;5054966;28;20249;-70
2023/08/14 08:38:54;;;;;;;2.15;2.05;;;22.50;99.90;;;;;;5025645;28;20188;-70
2023/08/14 08:41:35;;;;;;;1.70;1.60;;;22.50;99.90;;;;;;5038597;28;20182;-69
2023/08/14 08:44:21;;;;;;;1.63;1.52;;;22.50;99.90;;;;;;5035304;28;20205;-69
2023/08/14 08:47:05;;;;;;;2.05;1.80;;;22.50;99.90;;;;;;5048195;28;20177;-70
2023/08/14 08:49:32;;;;;;;2.03;1.63;;;22.50;99.90;;;;;;5035972;28;20552;-69
2023/08/14 08:51:58;;;;;;;1.65;1.55;;;22.50;99.90;;;;;;5038503;28;20276;-70
2023/08/14 08:54:26;;;;;;;1.60;1.50;;;22.50;99.90;;;;;;5038347;28;20198;-70
2023/08/14 08:56:55;;;;;;;3.42;1.80;;;22.50;99.90;;;;;;5025373;28;20309;-69
2023/08/14 08:59:22;;;;;;;1.92;1.80;;;22.50;99.90;;;;;;5052746;28;20174;-70
2023/08/14 09:01:48;;;;;;;1.88;1.73;;;22.50;99.90;;;;;;5052946;28;20242;-70
2023/08/14 09:04:15;;;;;;;1.92;1.83;;;22.50;99.90;;;;;;5034850;28;20278;-70
2023/08/14 09:06:41;;;;;;;2.03;1.85;;;22.50;99.90;;;;;;5071082;28;20567;-70
2023/08/14 09:09:11;;;;;;;2.25;1.65;;;22.50;99.90;;;;;;5040356;28;20649;-70
2023/08/14 09:11:37;;;;;;;2.00;1.90;;;22.50;99.90;;;;;;5034944;28;20192;-70
2023/08/14 09:14:04;;;;;;;2.42;2.10;;;22.50;99.90;;;;;;5029117;28;20206;-70
2023/08/14 09:16:30;;;;;;;2.00;1.90;;;22.50;99.90;;;;;;5042648;28;20271;-70
2023/08/14 09:19:00;;;;;;;1.90;1.80;;;22.50;99.90;;;;;;5054652;28;20189;-70
2023/08/14 09:21:28;;;;;;;2.75;2.10;;;22.50;99.90;;;;;;5071131;28;20178;-70
2023/08/14 09:23:55;;;;;;;2.47;1.88;;;22.50;99.90;;;;;;5048244;28;20204;-70
2023/08/14 09:26:21;;;;;;;1.80;1.70;;;22.50;99.90;;;;;;5062318;28;20198;-70
2023/08/14 09:28:48;;;;;;;3.53;2.30;;;22.50;99.90;;;;;;5060831;28;20271;-70
2023/08/14 09:31:14;;;;;;;1.95;1.85;;;22.50;99.90;;;;;;5038034;28;20182;-70
2023/08/14 09:33:43;;;;;;;2.03;1.92;;;22.50;99.90;;;;;;5045516;28;20217;-70
2023/08/14 09:36:11;;;;;;;2.08;1.90;;;22.50;99.90;;;;;;5046429;28;20222;-70
2023/08/14 09:38:37;;;;;;;2.10;1.80;;;22.50;99.90;;;;;;5061350;28;20263;-70
2023/08/14 09:41:03;;;;;;;2.40;2.20;;;22.50;99.90;;;;;;5048625;28;20186;-70
2023/08/14 09:43:32;;;;;;;2.67;2.30;;;22.50;99.90;;;;;;5037240;28;20205;-70
2023/08/14 09:46:02;;;;;;;2.33;2.13;;;22.50;99.90;;;;;;5050779;28;20197;-70
2023/08/14 09:48:48;;;;;;;2.20;2.10;;;22.50;99.90;;;;;;5050841;28;20198;-70
2023/08/14 09:51:16;;;;;;;2.10;2.00;;;22.50;99.90;;;;;;5029961;28;20185;-70
2023/08/14 09:53:56;;;;;;;2.25;2.08;;;22.50;99.90;;;;;;5052790;28;20209;-70
2023/08/14 09:56:23;;;;;;;2.30;2.13;;;22.50;99.90;;;;;;5045681;28;20201;-70
2023/08/14 09:58:50;;;;;;;2.33;2.13;;;22.50;99.90;;;;;;5043513;28;20175;-70
2023/08/14 10:01:18;;;;;;;2.33;2.13;;;22.50;99.90;;;;;;5036617;28;20182;-70
2023/08/14 10:03:49;;;;;;;2.53;2.30;;;22.50;99.90;;;;;;5049994;28;20210;-70
2023/08/14 10:06:16;;;;;;;2.60;2.40;;;22.50;99.90;;;;;;5030339;28;20179;-70
2023/08/14 10:08:49;;;;;;;2.88;2.20;;;22.50;99.90;;;;;;5020683;28;20181;-70
2023/08/14 10:11:17;;;;;;;2.00;1.90;;;22.50;99.90;;;;;;5038451;28;20174;-70
2023/08/14 10:13:51;;;;;;;2.65;2.20;;;22.50;99.90;;;;;;5016894;28;20210;-69
2023/08/14 10:16:27;;;;;;;2.20;2.10;;;22.50;99.90;;;;;;5048941;28;20223;-70
2023/08/14 10:19:01;;;;;;;2.35;2.17;;;22.60;99.90;;;;;;5039027;28;20194;-70
2023/08/14 10:21:32;;;;;;;2.08;1.90;;;22.50;99.90;;;;;;5051764;28;20194;-69
2023/08/14 10:24:02;;;;;;;2.42;2.22;;;22.60;99.90;;;;;;5043909;28;20293;-70
2023/08/14 10:26:29;;;;;;;2.90;2.35;;;22.60;99.90;;;;;;5056032;28;20613;-69
2023/08/14 10:28:57;;;;;;;2.03;1.92;;;22.50;99.90;;;;;;5061991;28;20190;-70
2023/08/14 10:31:26;;;;;;;2.75;2.40;;;22.50;99.90;;;;;;5062906;28;20186;-70
2023/08/14 10:33:53;;;;;;;2.58;2.38;;;22.60;99.90;;;;;;5036555;28;20205;-70
2023/08/14 10:36:20;;;;;;;2.53;2.17;;;22.60;99.90;;;;;;5037382;28;20198;-70
2023/08/14 10:38:46;;;;;;;2.47;2.28;;;22.60;99.90;;;;;;5033577;28;20265;-69
2023/08/14 10:41:16;;;;;;;2.70;2.50;;;22.50;99.90;;;;;;5047189;28;20191;-70
2023/08/14 10:43:42;;;;;;;2.33;2.13;;;22.60;99.90;;;;;;5032529;28;20213;-71
2023/08/14 10:46:14;;;;;;;2.50;2.30;;;22.60;99.90;;;;;;5040102;28;20177;-70
2023/08/14 10:48:44;;;;;;;2.67;2.47;;;22.60;99.90;;;;;;5050733;28;20197;-70
2023/08/14 10:51:12;;;;;;;2.85;2.65;;;22.60;99.90;;;;;;5048003;28;20272;-70
2023/08/14 10:53:40;;;;;;;2.90;2.70;;;22.50;99.90;;;;;;5024704;28;20214;-69
2023/08/14 10:56:07;;;;;;;3.17;2.55;;;22.60;99.90;;;;;;5041972;28;20751;-70
2023/08/14 10:58:35;;;;;;;3.80;2.63;;;22.60;99.90;;;;;;5034585;28;20187;-69
2023/08/14 11:01:11;;;;;;;2.80;2.60;;;22.60;99.90;;;;;;5039649;28;20210;-69
2023/08/14 11:03:56;;;;;;;2.80;2.60;;;22.60;99.90;;;;;;5032721;28;20209;-69
2023/08/14 11:06:27;;;;;;;2.95;2.75;;;22.60;99.90;;;;;;5049964;28;20277;-70
2023/08/14 11:09:05;;;;;;;2.75;2.53;;;22.60;99.90;;;;;;5026077;28;20214;-69
2023/08/14 11:11:31;;;;;;;2.95;2.50;;;22.60;99.90;;;;;;5032169;28;20186;-69
2023/08/14 11:13:57;;;;;;;3.00;2.58;;;22.60;99.90;;;;;;5068990;28;20206;-70
2023/08/14 11:16:23;;;;;;;2.25;2.15;;;22.60;99.90;;;;;;5031859;28;20210;-70
2023/08/14 11:18:51;;;;;;;3.17;2.80;;;22.60;99.90;;;;;;5040155;28;20255;-70
2023/08/14 11:21:17;;;;;;;3.30;3.00;;;22.60;99.90;;;;;;5049064;28;20174;-69
2023/08/14 11:23:42;;;;;;;2.80;2.60;;;22.60;99.90;;;;;;5053937;28;20231;-69
2023/08/14 11:26:08;;;;;;;3.22;3.03;;;22.60;99.90;;;;;;5051444;28;20242;-70
2023/08/14 11:28:35;;;;;;;3.30;3.00;;;22.60;99.90;;;;;;5036811;28;20197;-70
2023/08/14 11:31:00;;;;;;;2.85;2.65;;;22.60;99.90;;;;;;5045223;28;20197;-70
2023/08/14 11:33:26;;;;;;;2.95;2.75;;;22.60;99.90;;;;;;5047932;28;20209;-71
2023/08/14 11:35:55;;;;;;;3.08;2.88;;;22.60;99.90;;;;;;5037425;28;20237;-70
2023/08/14 11:38:22;;;;;;;3.15;2.90;;;22.60;99.90;;;;;;5036039;28;20235;-70
2023/08/14 11:40:48;;;;;;;2.80;2.60;;;22.60;99.90;;;;;;5044636;28;20186;-70
2023/08/14 11:43:14;;;;;;;2.83;2.63;;;22.60;99.90;;;;;;5028048;28;20209;-68
2023/08/14 11:45:40;;;;;;;2.75;2.53;;;22.60;99.90;;;;;;5019852;28;20191;-65
2023/08/14 11:48:08;;;;;;;3.35;3.15;;;22.70;99.90;;;;;;5050475;28;20181;-68
2023/08/14 11:50:34;;;;;;;3.33;3.10;;;22.60;99.90;;;;;;5048206;28;20190;-68
2023/08/14 11:53:01;;;;;;;3.40;3.20;;;22.70;99.90;;;;;;5033443;28;20221;-68
2023/08/14 11:55:27;;;;;;;3.08;2.88;;;22.70;99.90;;;;;;5062302;28;20297;-69
2023/08/14 11:57:53;;;;;;;3.70;3.40;;;22.60;99.90;;;;;;5019949;28;20179;-68
2023/08/14 12:00:20;;;;;;;3.17;2.97;;;22.60;99.90;;;;;;5043570;28;20185;-68
2023/08/14 12:02:46;;;;;;;3.60;3.30;;;22.70;99.90;;;;;;5031538;28;20279;-68
2023/08/14 12:05:12;;;;;;;3.20;3.00;;;22.70;99.90;;;;;;5031807;28;20268;-68
2023/08/14 12:07:41;;;;;;;3.50;3.20;;;22.70;99.90;;;;;;5037641;28;20715;-68
2023/08/14 12:10:08;;;;;;;3.97;3.33;;;22.60;99.90;;;;;;5025248;28;20178;-68
2023/08/14 12:12:34;;;;;;;3.30;3.10;;;22.60;99.90;;;;;;5063011;28;20196;-67
2023/08/14 12:15:00;;;;;;;3.70;3.40;;;22.60;99.90;;;;;;5022696;28;20206;-68
2023/08/14 12:17:26;;;;;;;3.47;3.17;;;22.60;99.90;;;;;;5035376;28;20213;-68
2023/08/14 12:20:00;;;;;;;3.70;3.10;;;22.70;99.90;;;;;;5052688;28;20183;-67
2023/08/14 12:22:27;;;;;;;3.38;3.17;;;22.70;99.90;;;;;;5052331;28;20225;-67
2023/08/14 12:24:54;;;;;;;4.07;3.70;;;22.60;99.90;;;;;;5047675;28;20208;-67
2023/08/14 12:27:23;;;;;;;3.17;2.97;;;22.70;99.90;;;;;;5064101;28;20190;-67
2023/08/14 12:29:52;;;;;;;3.28;3.08;;;22.70;99.90;;;;;;5027555;28;20187;-67
2023/08/14 12:32:19;;;;;;;3.63;3.33;;;22.70;99.90;;;;;;5060159;28;20201;-66
2023/08/14 12:34:46;;;;;;;3.50;3.20;;;22.70;99.90;;;;;;5036735;28;20218;-68
2023/08/14 12:37:14;;;;;;;3.78;3.40;;;22.70;99.90;;;;;;5049884;28;20202;-66
2023/08/14 12:39:44;;;;;;;3.30;3.10;;;22.70;99.90;;;;;;5047010;28;20190;-67
2023/08/14 12:42:14;;;;;;;3.30;3.00;;;22.70;99.90;;;;;;5046766;28;20182;-67
2023/08/14 12:44:39;;;;;;;3.67;3.00;;;22.70;99.90;;;;;;5041914;28;20212;-66
2023/08/14 12:47:07;;;;;;;3.30;3.10;;;22.70;99.90;;;;;;5042336;28;20182;-67
2023/08/14 12:49:35;;;;;;;3.83;3.38;;;22.70;99.90;;;;;;5044123;28;20661;-67
2023/08/14 12:52:00;;;;;;;3.63;3.33;;;22.70;99.90;;;;;;5028052;28;20171;-67
2023/08/14 12:54:27;;;;;;;3.22;3.03;;;22.70;99.90;;;;;;5049075;28;20268;-67